sensor_id;sensor_type;location;lat;lon;timestamp;pressure;altitude;pressure_sealevel;temperature;humidity
75051;BME280;63628;47.656;11.310;2023-12-29T00:02:14;95107.44;;;4.67;73.05
75051;BME280;63628;47.656;11.310;2023-12-29T00:04:40;95089.59;;;4.56;69.59
75051;BME280;63628;47.656;11.310;2023-12-29T00:07:10;95105.59;;;4.89;76.57
75051;BME280;63628;47.656;11.310;2023-12-29T00:09:36;95098.56;;;4.68;72.32
75051;BME280;63628;47.656;11.310;2023-12-29T00:12:07;95092.22;;;4.56;68.95
75051;BME280;63628;47.656;11.310;2023-12-29T00:14:36;95082.81;;;4.90;76.89
75051;BME280;63628;47.656;11.310;2023-12-29T00:17:03;95080.41;;;4.95;77.06
75051;BME280;63628;47.656;11.310;2023-12-29T00:19:30;95084.00;;;4.87;74.45
75051;BME280;63628;47.656;11.310;2023-12-29T00:21:57;95076.22;;;4.30;71.60
75051;BME280;63628;47.656;11.310;2023-12-29T00:24:27;95079.31;;;4.83;77.57
75051;BME280;63628;47.656;11.310;2023-12-29T00:26:54;95070.31;;;4.92;77.95
75051;BME280;63628;47.656;11.310;2023-12-29T00:29:21;95062.88;;;4.95;77.06
75051;BME280;63628;47.656;11.310;2023-12-29T00:31:47;95066.31;;;4.96;77.06
75051;BME280;63628;47.656;11.310;2023-12-29T00:34:14;95063.28;;;4.71;73.85
75051;BME280;63628;47.656;11.310;2023-12-29T00:36:41;95056.38;;;4.42;78.11
75051;BME280;63628;47.656;11.310;2023-12-29T00:39:07;95045.25;;;4.83;77.76
75051;BME280;63628;47.656;11.310;2023-12-29T00:41:35;95034.00;;;4.89;76.80
75051;BME280;63628;47.656;11.310;2023-12-29T00:44:03;95042.09;;;4.94;77.70
75051;BME280;63628;47.656;11.310;2023-12-29T00:46:30;95046.31;;;3.67;71.08
75051;BME280;63628;47.656;11.310;2023-12-29T00:48:57;95038.78;;;4.57;78.79
75051;BME280;63628;47.656;11.310;2023-12-29T00:51:23;95043.44;;;4.83;78.00
75051;BME280;63628;47.656;11.310;2023-12-29T00:53:50;95053.00;;;4.27;71.38
75051;BME280;63628;47.656;11.310;2023-12-29T00:56:17;95056.38;;;4.21;73.51
75051;BME280;63628;47.656;11.310;2023-12-29T00:58:45;95065.13;;;2.74;75.03
75051;BME280;63628;47.656;11.310;2023-12-29T01:01:11;95061.63;;;4.63;79.32
75051;BME280;63628;47.656;11.310;2023-12-29T01:03:38;95057.44;;;4.05;71.42
75051;BME280;63628;47.656;11.310;2023-12-29T01:06:05;95051.31;;;4.40;78.59
75051;BME280;63628;47.656;11.310;2023-12-29T01:08:32;95063.09;;;2.99;73.26
75051;BME280;63628;47.656;11.310;2023-12-29T01:11:00;95061.56;;;3.19;71.44
75051;BME280;63628;47.656;11.310;2023-12-29T01:13:26;95058.69;;;4.30;78.85
75051;BME280;63628;47.656;11.310;2023-12-29T01:15:54;95051.19;;;4.06;78.39
75051;BME280;63628;47.656;11.310;2023-12-29T01:18:21;95052.38;;;4.67;77.85
75051;BME280;63628;47.656;11.310;2023-12-29T01:20:48;95043.00;;;4.80;77.91
75051;BME280;63628;47.656;11.310;2023-12-29T01:23:14;95046.03;;;4.34;79.00
75051;BME280;63628;47.656;11.310;2023-12-29T01:25:41;95047.94;;;4.68;78.34
75051;BME280;63628;47.656;11.310;2023-12-29T01:28:08;95047.00;;;4.75;76.96
75051;BME280;63628;47.656;11.310;2023-12-29T01:30:34;95044.63;;;4.81;77.43
75051;BME280;63628;47.656;11.310;2023-12-29T01:33:02;95033.13;;;4.82;77.84
75051;BME280;63628;47.656;11.310;2023-12-29T01:35:29;95041.72;;;2.95;70.43
75051;BME280;63628;47.656;11.310;2023-12-29T01:37:56;95046.47;;;2.39;78.82
75051;BME280;63628;47.656;11.310;2023-12-29T01:40:23;95029.72;;;3.60;78.49
75051;BME280;63628;47.656;11.310;2023-12-29T01:42:50;95026.84;;;4.55;78.97
75051;BME280;63628;47.656;11.310;2023-12-29T01:45:20;95019.56;;;4.71;77.50
75051;BME280;63628;47.656;11.310;2023-12-29T01:47:49;95019.16;;;4.74;78.05
75051;BME280;63628;47.656;11.310;2023-12-29T01:50:18;95011.59;;;4.16;68.32
75051;BME280;63628;47.656;11.310;2023-12-29T01:52:48;95025.75;;;1.92;74.52
75051;BME280;63628;47.656;11.310;2023-12-29T01:55:18;95013.09;;;3.67;76.48
75051;BME280;63628;47.656;11.310;2023-12-29T01:57:47;95018.56;;;1.40;75.38
75051;BME280;63628;47.656;11.310;2023-12-29T02:00:16;95015.09;;;3.65;81.12
75051;BME280;63628;47.656;11.310;2023-12-29T02:02:43;95016.41;;;3.91;75.64
75051;BME280;63628;47.656;11.310;2023-12-29T02:05:13;94996.47;;;3.75;77.92
75051;BME280;63628;47.656;11.310;2023-12-29T02:07:42;94989.00;;;4.57;77.99
75051;BME280;63628;47.656;11.310;2023-12-29T02:10:09;94971.72;;;4.63;77.84
75051;BME280;63628;47.656;11.310;2023-12-29T02:12:40;94969.72;;;4.65;78.36
75051;BME280;63628;47.656;11.310;2023-12-29T02:15:08;94952.19;;;3.23;73.10
75051;BME280;63628;47.656;11.310;2023-12-29T02:17:38;94935.50;;;3.96;77.39
75051;BME280;63628;47.656;11.310;2023-12-29T02:20:08;94947.81;;;4.51;78.01
75051;BME280;63628;47.656;11.310;2023-12-29T02:22:35;94939.94;;;4.51;77.51
75051;BME280;63628;47.656;11.310;2023-12-29T02:25:04;94924.38;;;3.72;73.83
75051;BME280;63628;47.656;11.310;2023-12-29T02:27:41;94923.25;;;3.81;78.22
75051;BME280;63628;47.656;11.310;2023-12-29T02:30:18;94922.00;;;4.48;78.65
75051;BME280;63628;47.656;11.310;2023-12-29T02:32:46;94922.50;;;4.58;77.34
75051;BME280;63628;47.656;11.310;2023-12-29T02:35:18;94918.06;;;4.59;78.01
75051;BME280;63628;47.656;11.310;2023-12-29T02:37:46;94921.09;;;4.62;77.38
75051;BME280;63628;47.656;11.310;2023-12-29T02:40:15;94914.44;;;4.60;77.58
75051;BME280;63628;47.656;11.310;2023-12-29T02:42:46;94920.06;;;4.57;74.98
75051;BME280;63628;47.656;11.310;2023-12-29T02:45:13;94918.72;;;4.39;70.62
75051;BME280;63628;47.656;11.310;2023-12-29T02:47:41;94919.75;;;3.17;72.96
75051;BME280;63628;47.656;11.310;2023-12-29T02:50:08;94916.09;;;3.47;73.04
75051;BME280;63628;47.656;11.310;2023-12-29T02:52:35;94925.66;;;4.26;78.32
75051;BME280;63628;47.656;11.310;2023-12-29T02:55:02;94931.28;;;4.51;78.01
75051;BME280;63628;47.656;11.310;2023-12-29T02:57:31;94929.91;;;4.55;77.59
75051;BME280;63628;47.656;11.310;2023-12-29T02:59:58;94922.03;;;4.55;77.70
75051;BME280;63628;47.656;11.310;2023-12-29T03:02:24;94927.13;;;4.56;77.75
75051;BME280;63628;47.656;11.310;2023-12-29T03:04:51;94931.84;;;4.46;75.67
75051;BME280;63628;47.656;11.310;2023-12-29T03:07:18;94928.06;;;3.78;73.74
75051;BME280;63628;47.656;11.310;2023-12-29T03:09:44;94914.09;;;4.41;77.29
75051;BME280;63628;47.656;11.310;2023-12-29T03:12:11;94902.56;;;4.36;76.95
75051;BME280;63628;47.656;11.310;2023-12-29T03:14:39;94899.44;;;4.54;77.45
75051;BME280;63628;47.656;11.310;2023-12-29T03:17:06;94900.47;;;4.53;77.39
75051;BME280;63628;47.656;11.310;2023-12-29T03:19:33;94905.16;;;4.57;78.24
75051;BME280;63628;47.656;11.310;2023-12-29T03:22:00;94917.44;;;4.57;77.89
75051;BME280;63628;47.656;11.310;2023-12-29T03:24:26;94918.38;;;4.49;75.28
75051;BME280;63628;47.656;11.310;2023-12-29T03:26:53;94917.72;;;2.53;73.19
75051;BME280;63628;47.656;11.310;2023-12-29T03:29:20;94909.00;;;2.76;79.68
75051;BME280;63628;47.656;11.310;2023-12-29T03:31:48;94905.69;;;3.97;78.80
75051;BME280;63628;47.656;11.310;2023-12-29T03:34:14;94898.88;;;3.38;70.03
75051;BME280;63628;47.656;11.310;2023-12-29T03:36:41;94916.94;;;4.19;78.65
75051;BME280;63628;47.656;11.310;2023-12-29T03:39:09;94923.31;;;3.88;70.73
75051;BME280;63628;47.656;11.310;2023-12-29T03:41:35;94920.50;;;4.11;74.56
75051;BME280;63628;47.656;11.310;2023-12-29T03:44:02;94921.31;;;4.39;77.58
75051;BME280;63628;47.656;11.310;2023-12-29T03:46:29;94916.13;;;4.46;76.95
75051;BME280;63628;47.656;11.310;2023-12-29T03:48:58;94918.56;;;4.47;77.46
75051;BME280;63628;47.656;11.310;2023-12-29T03:51:24;94925.84;;;4.52;78.11
75051;BME280;63628;47.656;11.310;2023-12-29T03:53:51;94919.00;;;4.51;77.50
75051;BME280;63628;47.656;11.310;2023-12-29T03:56:18;94906.75;;;3.60;74.75
75051;BME280;63628;47.656;11.310;2023-12-29T03:58:45;94912.44;;;4.34;78.38
75051;BME280;63628;47.656;11.310;2023-12-29T04:01:13;94925.19;;;4.43;77.37
75051;BME280;63628;47.656;11.310;2023-12-29T04:03:40;94934.09;;;4.49;77.61
75051;BME280;63628;47.656;11.310;2023-12-29T04:06:09;94929.84;;;4.48;75.96
75051;BME280;63628;47.656;11.310;2023-12-29T04:08:36;94925.13;;;2.79;75.31
75051;BME280;63628;47.656;11.310;2023-12-29T04:11:04;94911.34;;;3.79;73.70
75051;BME280;63628;47.656;11.310;2023-12-29T04:13:31;94915.16;;;3.19;76.12
75051;BME280;63628;47.656;11.310;2023-12-29T04:15:58;94917.44;;;4.29;77.90
75051;BME280;63628;47.656;11.310;2023-12-29T04:18:24;94908.44;;;4.38;77.08
75051;BME280;63628;47.656;11.310;2023-12-29T04:20:51;94908.66;;;4.43;77.69
75051;BME280;63628;47.656;11.310;2023-12-29T04:23:19;94920.75;;;4.44;77.62
75051;BME280;63628;47.656;11.310;2023-12-29T04:25:46;94923.19;;;4.45;77.61
75051;BME280;63628;47.656;11.310;2023-12-29T04:28:12;94922.50;;;3.66;78.91
75051;BME280;63628;47.656;11.310;2023-12-29T04:30:39;94928.84;;;3.36;73.43
75051;BME280;63628;47.656;11.310;2023-12-29T04:33:06;94927.44;;;4.19;78.72
75051;BME280;63628;47.656;11.310;2023-12-29T04:35:33;94911.22;;;4.36;77.81
75051;BME280;63628;47.656;11.310;2023-12-29T04:37:59;94909.38;;;3.60;71.45
75051;BME280;63628;47.656;11.310;2023-12-29T04:40:28;94915.38;;;3.39;72.03
75051;BME280;63628;47.656;11.310;2023-12-29T04:42:55;94912.91;;;4.16;78.11
75051;BME280;63628;47.656;11.310;2023-12-29T04:45:21;94912.63;;;4.32;77.09
75051;BME280;63628;47.656;11.310;2023-12-29T04:47:48;94917.09;;;4.38;78.13
75051;BME280;63628;47.656;11.310;2023-12-29T04:50:15;94913.03;;;4.08;75.31
75051;BME280;63628;47.656;11.310;2023-12-29T04:52:41;94913.03;;;4.36;77.13
75051;BME280;63628;47.656;11.310;2023-12-29T04:55:08;94913.28;;;4.41;78.16
75051;BME280;63628;47.656;11.310;2023-12-29T04:57:36;94917.53;;;4.42;78.50
75051;BME280;63628;47.656;11.310;2023-12-29T05:00:04;94926.38;;;3.49;71.37
75051;BME280;63628;47.656;11.310;2023-12-29T05:02:31;94934.91;;;3.07;78.91
75051;BME280;63628;47.656;11.310;2023-12-29T05:04:57;94927.75;;;4.09;79.57
75051;BME280;63628;47.656;11.310;2023-12-29T05:07:24;94924.47;;;4.28;77.62
75051;BME280;63628;47.656;11.310;2023-12-29T05:09:51;94923.47;;;4.29;75.94
75051;BME280;63628;47.656;11.310;2023-12-29T05:12:18;94924.34;;;4.36;78.14
75051;BME280;63628;47.656;11.310;2023-12-29T05:14:46;94929.19;;;4.39;77.35
75051;BME280;63628;47.656;11.310;2023-12-29T05:17:12;94923.66;;;2.92;70.99
75051;BME280;63628;47.656;11.310;2023-12-29T05:19:39;94940.28;;;3.35;75.09
75051;BME280;63628;47.656;11.310;2023-12-29T05:22:06;94946.03;;;4.02;78.28
75051;BME280;63628;47.656;11.310;2023-12-29T05:24:32;94951.63;;;2.76;70.95
75051;BME280;63628;47.656;11.310;2023-12-29T05:26:59;94948.34;;;1.62;77.74
75051;BME280;63628;47.656;11.310;2023-12-29T05:29:26;94945.00;;;3.82;80.21
75051;BME280;63628;47.656;11.310;2023-12-29T05:31:54;94949.50;;;4.09;77.69
75051;BME280;63628;47.656;11.310;2023-12-29T05:34:20;94943.13;;;4.19;78.29
75051;BME280;63628;47.656;11.310;2023-12-29T05:36:47;94935.56;;;4.30;77.79
75051;BME280;63628;47.656;11.310;2023-12-29T05:39:16;94938.97;;;4.03;76.92
75051;BME280;63628;47.656;11.310;2023-12-29T05:41:43;94952.44;;;4.21;75.98
75051;BME280;63628;47.656;11.310;2023-12-29T05:44:10;94950.44;;;3.80;78.45
75051;BME280;63628;47.656;11.310;2023-12-29T05:46:36;94953.44;;;4.20;78.25
75051;BME280;63628;47.656;11.310;2023-12-29T05:49:04;94954.09;;;4.29;77.67
75051;BME280;63628;47.656;11.310;2023-12-29T05:51:31;94954.22;;;2.91;71.68
75051;BME280;63628;47.656;11.310;2023-12-29T05:53:58;94947.00;;;3.80;79.17
75051;BME280;63628;47.656;11.310;2023-12-29T05:56:25;94961.41;;;3.33;70.65
75051;BME280;63628;47.656;11.310;2023-12-29T05:58:52;94952.38;;;3.93;77.56
75051;BME280;63628;47.656;11.310;2023-12-29T06:01:19;94963.88;;;2.76;72.00
75051;BME280;63628;47.656;11.310;2023-12-29T06:03:46;94965.66;;;2.90;80.95
75051;BME280;63628;47.656;11.310;2023-12-29T06:06:14;94960.72;;;4.03;78.58
75051;BME280;63628;47.656;11.310;2023-12-29T06:08:41;94968.47;;;4.11;77.69
75051;BME280;63628;47.656;11.310;2023-12-29T06:11:07;94973.19;;;4.23;77.64
75051;BME280;63628;47.656;11.310;2023-12-29T06:13:34;94971.81;;;4.27;77.63
75051;BME280;63628;47.656;11.310;2023-12-29T06:16:01;94973.13;;;3.37;70.90
75051;BME280;63628;47.656;11.310;2023-12-29T06:18:28;94965.34;;;4.01;77.79
75051;BME280;63628;47.656;11.310;2023-12-29T06:20:55;94960.63;;;2.74;72.86
75051;BME280;63628;47.656;11.310;2023-12-29T06:23:23;94958.16;;;3.31;80.51
75051;BME280;63628;47.656;11.310;2023-12-29T06:25:52;94965.53;;;4.00;77.95
75051;BME280;63628;47.656;11.310;2023-12-29T06:28:18;94960.69;;;2.95;74.08
75051;BME280;63628;47.656;11.310;2023-12-29T06:30:45;94962.22;;;3.91;79.39
75051;BME280;63628;47.656;11.310;2023-12-29T06:33:12;94960.78;;;4.10;78.39
75051;BME280;63628;47.656;11.310;2023-12-29T06:35:39;94963.91;;;4.20;78.43
75051;BME280;63628;47.656;11.310;2023-12-29T06:38:06;94962.72;;;4.23;78.02
75051;BME280;63628;47.656;11.310;2023-12-29T06:40:34;94956.38;;;3.53;73.07
75051;BME280;63628;47.656;11.310;2023-12-29T06:43:00;94959.13;;;3.45;77.87
75051;BME280;63628;47.656;11.310;2023-12-29T06:45:27;94962.59;;;4.09;78.28
75051;BME280;63628;47.656;11.310;2023-12-29T06:47:54;94961.22;;;4.13;77.48
75051;BME280;63628;47.656;11.310;2023-12-29T06:50:20;94967.66;;;4.11;76.59
75051;BME280;63628;47.656;11.310;2023-12-29T06:52:47;94966.28;;;3.94;73.22
75051;BME280;63628;47.656;11.310;2023-12-29T06:55:14;94969.91;;;3.93;77.50
75051;BME280;63628;47.656;11.310;2023-12-29T06:57:43;94969.09;;;3.56;72.86
75051;BME280;63628;47.656;11.310;2023-12-29T07:00:10;94970.53;;;2.93;78.77
75051;BME280;63628;47.656;11.310;2023-12-29T07:02:38;94966.66;;;3.91;78.63
75051;BME280;63628;47.656;11.310;2023-12-29T07:05:06;94964.59;;;3.50;73.07
75051;BME280;63628;47.656;11.310;2023-12-29T07:07:33;94960.53;;;4.05;78.29
75051;BME280;63628;47.656;11.310;2023-12-29T07:09:59;94981.22;;;4.21;77.97
75051;BME280;63628;47.656;11.310;2023-12-29T07:12:26;94972.56;;;4.21;77.70
75051;BME280;63628;47.656;11.310;2023-12-29T07:14:54;94969.75;;;4.22;78.17
75051;BME280;63628;47.656;11.310;2023-12-29T07:17:22;94970.09;;;4.12;74.28
75051;BME280;63628;47.656;11.310;2023-12-29T07:19:49;94974.75;;;3.38;75.39
75051;BME280;63628;47.656;11.310;2023-12-29T07:22:16;94975.06;;;4.07;77.74
75051;BME280;63628;47.656;11.310;2023-12-29T07:24:43;94979.75;;;4.12;76.69
75051;BME280;63628;47.656;11.310;2023-12-29T07:27:10;94993.84;;;3.39;74.10
75051;BME280;63628;47.656;11.310;2023-12-29T07:29:37;94996.91;;;3.78;78.15
75051;BME280;63628;47.656;11.310;2023-12-29T07:32:05;94996.44;;;4.11;77.68
75051;BME280;63628;47.656;11.310;2023-12-29T07:34:32;95001.78;;;3.81;73.27
75051;BME280;63628;47.656;11.310;2023-12-29T07:36:59;95003.19;;;3.99;74.96
75051;BME280;63628;47.656;11.310;2023-12-29T07:39:26;95000.56;;;3.63;72.60
75051;BME280;63628;47.656;11.310;2023-12-29T07:41:52;95000.16;;;3.80;76.29
75051;BME280;63628;47.656;11.310;2023-12-29T07:44:19;95003.94;;;4.14;77.86
75051;BME280;63628;47.656;11.310;2023-12-29T07:46:46;95006.56;;;3.93;74.06
75051;BME280;63628;47.656;11.310;2023-12-29T07:49:14;94998.53;;;3.79;74.21
75051;BME280;63628;47.656;11.310;2023-12-29T07:51:42;94990.75;;;3.86;72.41
75051;BME280;63628;47.656;11.310;2023-12-29T07:54:09;94990.53;;;4.02;76.44
75051;BME280;63628;47.656;11.310;2023-12-29T07:56:36;94983.53;;;4.09;78.15
75051;BME280;63628;47.656;11.310;2023-12-29T07:59:04;94993.28;;;4.16;77.63
75051;BME280;63628;47.656;11.310;2023-12-29T08:01:30;94997.81;;;4.07;74.50
75051;BME280;63628;47.656;11.310;2023-12-29T08:03:57;95002.50;;;3.75;74.70
75051;BME280;63628;47.656;11.310;2023-12-29T08:06:25;95007.78;;;3.97;78.34
75051;BME280;63628;47.656;11.310;2023-12-29T08:08:53;95007.56;;;4.13;77.51
75051;BME280;63628;47.656;11.310;2023-12-29T08:11:20;95010.59;;;4.17;77.98
75051;BME280;63628;47.656;11.310;2023-12-29T08:13:48;95013.84;;;4.19;78.16
75051;BME280;63628;47.656;11.310;2023-12-29T08:16:15;95003.00;;;4.22;77.41
75051;BME280;63628;47.656;11.310;2023-12-29T08:18:44;95007.41;;;4.21;77.37
75051;BME280;63628;47.656;11.310;2023-12-29T08:21:16;95006.00;;;4.19;76.24
75051;BME280;63628;47.656;11.310;2023-12-29T08:23:44;95011.03;;;4.20;77.27
75051;BME280;63628;47.656;11.310;2023-12-29T08:26:11;95006.63;;;4.21;78.05
75051;BME280;63628;47.656;11.310;2023-12-29T08:28:37;95007.78;;;4.18;74.32
75051;BME280;63628;47.656;11.310;2023-12-29T08:31:04;95009.28;;;4.06;75.03
75051;BME280;63628;47.656;11.310;2023-12-29T08:33:32;95005.88;;;4.05;77.21
75051;BME280;63628;47.656;11.310;2023-12-29T08:36:01;95000.50;;;4.13;76.32
75051;BME280;63628;47.656;11.310;2023-12-29T08:38:28;95003.00;;;4.22;78.01
75051;BME280;63628;47.656;11.310;2023-12-29T08:40:56;95000.78;;;4.46;74.83
75051;BME280;63628;47.656;11.310;2023-12-29T08:43:22;94996.72;;;4.44;75.96
75051;BME280;63628;47.656;11.310;2023-12-29T08:45:49;94998.00;;;4.27;77.42
75051;BME280;63628;47.656;11.310;2023-12-29T08:48:16;94996.06;;;4.57;72.57
75051;BME280;63628;47.656;11.310;2023-12-29T08:50:44;94994.56;;;4.75;72.24
75051;BME280;63628;47.656;11.310;2023-12-29T08:53:11;94994.38;;;5.12;73.84
75051;BME280;63628;47.656;11.310;2023-12-29T08:55:38;94982.44;;;5.37;73.70
75051;BME280;63628;47.656;11.310;2023-12-29T08:58:06;94982.75;;;4.86;73.74
75051;BME280;63628;47.656;11.310;2023-12-29T09:00:32;94991.13;;;4.47;76.07
75051;BME280;63628;47.656;11.310;2023-12-29T09:02:59;94984.09;;;5.10;72.93
75051;BME280;63628;47.656;11.310;2023-12-29T09:05:26;94986.41;;;4.92;74.79
75051;BME280;63628;47.656;11.310;2023-12-29T09:07:53;94991.22;;;5.70;71.66
75051;BME280;63628;47.656;11.310;2023-12-29T09:10:19;94997.63;;;5.48;72.52
75051;BME280;63628;47.656;11.310;2023-12-29T09:12:47;94995.78;;;5.07;77.03
75051;BME280;63628;47.656;11.310;2023-12-29T09:15:16;94995.22;;;6.01;71.00
75051;BME280;63628;47.656;11.310;2023-12-29T09:17:42;94985.97;;;6.64;70.26
75051;BME280;63628;47.656;11.310;2023-12-29T09:20:10;94996.31;;;6.59;70.17
75051;BME280;63628;47.656;11.310;2023-12-29T09:22:37;94990.97;;;7.19;73.36
75051;BME280;63628;47.656;11.310;2023-12-29T09:25:05;94995.31;;;5.80;74.85
75051;BME280;63628;47.656;11.310;2023-12-29T09:27:31;94990.66;;;5.75;72.76
75051;BME280;63628;47.656;11.310;2023-12-29T09:29:58;94993.00;;;4.81;76.27
75051;BME280;63628;47.656;11.310;2023-12-29T09:32:26;94986.63;;;4.62;76.66
75051;BME280;63628;47.656;11.310;2023-12-29T09:34:53;94983.81;;;4.64;77.41
75051;BME280;63628;47.656;11.310;2023-12-29T09:37:19;94979.34;;;4.58;77.07
75051;BME280;63628;47.656;11.310;2023-12-29T09:39:46;94983.47;;;4.73;76.97
75051;BME280;63628;47.656;11.310;2023-12-29T09:42:20;94984.63;;;4.64;77.42
75051;BME280;63628;47.656;11.310;2023-12-29T09:44:51;94981.91;;;6.22;74.05
75051;BME280;63628;47.656;11.310;2023-12-29T09:47:21;94989.41;;;5.64;72.75
75051;BME280;63628;47.656;11.310;2023-12-29T09:49:51;94984.50;;;5.48;74.63
75051;BME280;63628;47.656;11.310;2023-12-29T09:52:20;94987.13;;;4.79;75.91
75051;BME280;63628;47.656;11.310;2023-12-29T09:54:51;94976.34;;;4.61;77.36
75051;BME280;63628;47.656;11.310;2023-12-29T09:57:19;94980.72;;;6.51;71.50
75051;BME280;63628;47.656;11.310;2023-12-29T09:59:48;94967.59;;;6.51;70.34
75051;BME280;63628;47.656;11.310;2023-12-29T10:02:15;94972.59;;;6.86;71.51
75051;BME280;63628;47.656;11.310;2023-12-29T10:04:42;94976.66;;;6.88;72.43
75051;BME280;63628;47.656;11.310;2023-12-29T10:07:15;94967.81;;;7.92;68.84
75051;BME280;63628;47.656;11.310;2023-12-29T10:09:45;94973.47;;;5.79;72.57
75051;BME280;63628;47.656;11.310;2023-12-29T10:12:15;94970.97;;;5.45;74.32
75051;BME280;63628;47.656;11.310;2023-12-29T10:14:46;94960.00;;;4.93;76.61
75051;BME280;63628;47.656;11.310;2023-12-29T10:17:25;94965.19;;;4.87;76.29
75051;BME280;63628;47.656;11.310;2023-12-29T10:20:00;94953.22;;;6.60;74.09
75051;BME280;63628;47.656;11.310;2023-12-29T10:22:37;94963.84;;;5.32;74.41
75051;BME280;63628;47.656;11.310;2023-12-29T10:25:08;94953.09;;;4.86;76.69
75051;BME280;63628;47.656;11.310;2023-12-29T10:27:36;94951.09;;;4.88;77.28
75051;BME280;63628;47.656;11.310;2023-12-29T10:30:03;94949.63;;;4.78;77.56
75051;BME280;63628;47.656;11.310;2023-12-29T10:32:31;94941.78;;;5.81;76.33
75051;BME280;63628;47.656;11.310;2023-12-29T10:35:08;94928.44;;;8.60;66.02
75051;BME280;63628;47.656;11.310;2023-12-29T10:37:37;94923.03;;;9.16;61.46
75051;BME280;63628;47.656;11.310;2023-12-29T10:40:05;94928.78;;;7.31;67.73
75051;BME280;63628;47.656;11.310;2023-12-29T10:42:32;94932.56;;;6.04;71.57
75051;BME280;63628;47.656;11.310;2023-12-29T10:45:07;94925.91;;;8.90;65.63
75051;BME280;63628;47.656;11.310;2023-12-29T10:47:34;94909.06;;;11.69;53.91
75051;BME280;63628;47.656;11.310;2023-12-29T10:50:05;94899.38;;;12.32;49.70
75051;BME280;63628;47.656;11.310;2023-12-29T10:52:32;94896.47;;;13.61;44.75
75051;BME280;63628;47.656;11.310;2023-12-29T10:55:08;94894.72;;;13.67;44.75
75051;BME280;63628;47.656;11.310;2023-12-29T10:57:36;94899.69;;;13.41;46.01
75051;BME280;63628;47.656;11.310;2023-12-29T11:00:03;94894.38;;;12.86;44.92
75051;BME280;63628;47.656;11.310;2023-12-29T11:02:31;94888.09;;;12.25;46.52
75051;BME280;63628;47.656;11.310;2023-12-29T11:05:03;94888.38;;;11.55;48.42
75051;BME280;63628;47.656;11.310;2023-12-29T11:07:32;94889.16;;;11.67;50.49
75051;BME280;63628;47.656;11.310;2023-12-29T11:10:00;94889.75;;;10.94;53.89
75051;BME280;63628;47.656;11.310;2023-12-29T11:12:32;94888.06;;;10.11;58.75
75051;BME280;63628;47.656;11.310;2023-12-29T11:15:01;94884.84;;;10.09;59.16
75051;BME280;63628;47.656;11.310;2023-12-29T11:17:29;94879.41;;;10.92;54.68
75051;BME280;63628;47.656;11.310;2023-12-29T11:19:58;94873.72;;;11.24;53.02
75051;BME280;63628;47.656;11.310;2023-12-29T11:22:27;94872.94;;;11.23;54.75
75051;BME280;63628;47.656;11.310;2023-12-29T11:24:54;94870.78;;;10.73;55.77
75051;BME280;63628;47.656;11.310;2023-12-29T11:27:22;94880.19;;;8.78;64.42
75051;BME280;63628;47.656;11.310;2023-12-29T11:29:50;94861.44;;;10.94;56.23
75051;BME280;63628;47.656;11.310;2023-12-29T11:32:21;94863.50;;;11.04;55.61
75051;BME280;63628;47.656;11.310;2023-12-29T11:34:53;94854.81;;;10.57;55.44
75051;BME280;63628;47.656;11.310;2023-12-29T11:37:28;94866.19;;;9.92;56.94
75051;BME280;63628;47.656;11.310;2023-12-29T11:40:07;94866.88;;;9.99;52.31
75051;BME280;63628;47.656;11.310;2023-12-29T11:42:40;94853.31;;;10.49;50.69
75051;BME280;63628;47.656;11.310;2023-12-29T11:45:24;94852.53;;;10.07;50.42
75051;BME280;63628;47.656;11.310;2023-12-29T11:47:52;94850.97;;;10.29;49.77
75051;BME280;63628;47.656;11.310;2023-12-29T11:50:27;94853.94;;;8.83;59.85
75051;BME280;63628;47.656;11.310;2023-12-29T11:52:54;94850.88;;;8.18;61.18
75051;BME280;63628;47.656;11.310;2023-12-29T11:55:21;94848.31;;;9.46;56.39
75051;BME280;63628;47.656;11.310;2023-12-29T11:57:48;94848.31;;;9.46;57.48
75051;BME280;63628;47.656;11.310;2023-12-29T12:00:15;94852.00;;;9.45;57.81
75051;BME280;63628;47.656;11.310;2023-12-29T12:02:44;94848.81;;;9.54;56.76
75051;BME280;63628;47.656;11.310;2023-12-29T12:05:11;94859.13;;;9.08;58.59
75051;BME280;63628;47.656;11.310;2023-12-29T12:07:58;94850.59;;;9.42;55.36
75051;BME280;63628;47.656;11.310;2023-12-29T12:10:32;94848.53;;;9.44;55.79
75051;BME280;63628;47.656;11.310;2023-12-29T12:13:00;94852.69;;;8.17;63.53
75051;BME280;63628;47.656;11.310;2023-12-29T12:15:31;94856.94;;;7.62;65.97
75051;BME280;63628;47.656;11.310;2023-12-29T12:18:00;94843.47;;;9.13;58.14
75051;BME280;63628;47.656;11.310;2023-12-29T12:20:30;94847.66;;;8.41;60.86
75051;BME280;63628;47.656;11.310;2023-12-29T12:22:59;94839.31;;;9.65;53.95
75051;BME280;63628;47.656;11.310;2023-12-29T12:25:27;94839.94;;;9.79;53.08
75051;BME280;63628;47.656;11.310;2023-12-29T12:27:57;94832.81;;;9.79;51.26
75051;BME280;63628;47.656;11.310;2023-12-29T12:30:24;94825.59;;;9.87;51.54
75051;BME280;63628;47.656;11.310;2023-12-29T12:32:58;94833.13;;;9.71;52.56
75051;BME280;63628;47.656;11.310;2023-12-29T12:35:27;94837.88;;;9.81;53.08
75051;BME280;63628;47.656;11.310;2023-12-29T12:38:07;94829.97;;;9.93;53.08
75051;BME280;63628;47.656;11.310;2023-12-29T12:40:34;94814.56;;;9.90;52.97
75051;BME280;63628;47.656;11.310;2023-12-29T12:43:01;94821.63;;;10.19;53.75
75051;BME280;63628;47.656;11.310;2023-12-29T12:45:33;94813.56;;;10.02;53.34
75051;BME280;63628;47.656;11.310;2023-12-29T12:48:02;94818.06;;;9.72;54.63
75051;BME280;63628;47.656;11.310;2023-12-29T12:50:32;94818.88;;;8.14;64.67
75051;BME280;63628;47.656;11.310;2023-12-29T12:52:58;94819.94;;;8.75;60.06
75051;BME280;63628;47.656;11.310;2023-12-29T12:55:31;94818.31;;;8.31;62.25
75051;BME280;63628;47.656;11.310;2023-12-29T12:57:59;94817.09;;;9.54;57.82
75051;BME280;63628;47.656;11.310;2023-12-29T13:00:26;94808.03;;;10.04;57.44
75051;BME280;63628;47.656;11.310;2023-12-29T13:02:54;94798.72;;;10.01;55.23
75051;BME280;63628;47.656;11.310;2023-12-29T13:05:21;94812.41;;;10.10;57.39